Terminal Aerodrome Forecast
Issued by NWS Austin/San Antonio, TX

Home | Current Version | Previous Version | Text Only | Print | Product List | Glossary On
Versions: 1 2 3 4 5 6 7 8 9 10 11 12 13 14 15 16 17 18 19 20 21 22
000
FTUS44 KEWX 251100
TAFDRT
TAF
KDRT 251130Z 2512/2612 12008KT P6SM FEW250
     FM251600 14012G24KT P6SM FEW250
     FM260000 13010KT P6SM FEW250
     FM261100 10009KT P6SM OVC015=

USA.gov is the U.S. government's official web portal to all federal, state and local government web resources and services.